createdAt,value
2022-12-08T00:01:32.811Z,18.90
2022-12-08T00:03:59.182Z,18.91
2022-12-08T00:06:25.496Z,18.87
2022-12-08T00:08:51.807Z,18.92
2022-12-08T00:11:18.182Z,18.91
2022-12-08T00:13:44.502Z,18.90
2022-12-08T00:16:10.873Z,18.94
2022-12-08T00:18:37.198Z,18.94
2022-12-08T00:21:03.514Z,18.97
2022-12-08T00:23:29.857Z,18.91
2022-12-08T00:25:56.192Z,18.93
2022-12-08T00:28:22.560Z,18.91
2022-12-08T00:30:48.899Z,18.90
2022-12-08T00:33:15.212Z,18.93
2022-12-08T00:35:43.225Z,18.90
2022-12-08T00:38:09.827Z,18.95
2022-12-08T00:40:36.181Z,18.95
2022-12-08T00:43:02.500Z,18.91
2022-12-08T00:45:28.878Z,18.91
2022-12-08T00:47:55.249Z,18.86
2022-12-08T00:50:21.568Z,18.91
2022-12-08T00:52:47.871Z,18.91
2022-12-08T00:55:14.149Z,18.89
2022-12-08T00:57:40.511Z,18.86
2022-12-08T01:00:07.009Z,18.84
2022-12-08T01:02:33.486Z,18.88
2022-12-08T01:04:59.825Z,18.90
2022-12-08T01:07:28.924Z,18.92
2022-12-08T01:09:58.061Z,18.89
2022-12-08T01:12:24.354Z,18.90
2022-12-08T01:14:55.846Z,18.91
2022-12-08T01:17:27.109Z,18.88
2022-12-08T01:19:56.205Z,18.87
2022-12-08T01:22:25.318Z,18.89
2022-12-08T01:24:54.406Z,18.86
2022-12-08T01:27:23.529Z,18.87
2022-12-08T01:29:49.848Z,18.88
2022-12-08T01:32:18.958Z,18.88
2022-12-08T01:34:48.057Z,18.88
2022-12-08T01:37:14.418Z,18.81
2022-12-08T01:39:40.700Z,18.88
2022-12-08T01:42:06.993Z,18.87
2022-12-08T01:44:36.116Z,18.86
2022-12-08T01:47:05.230Z,18.89
2022-12-08T01:49:31.573Z,18.84
2022-12-08T01:52:00.666Z,18.84
2022-12-08T01:54:29.763Z,18.88
2022-12-08T01:56:56.072Z,18.86
2022-12-08T01:59:25.175Z,18.89
2022-12-08T02:01:51.512Z,18.88
2022-12-08T02:04:17.909Z,18.84
2022-12-08T02:06:44.209Z,18.84
2022-12-08T02:09:13.295Z,18.83
2022-12-08T02:11:42.430Z,18.88
2022-12-08T02:14:11.524Z,18.88
2022-12-08T02:16:40.621Z,18.87
2022-12-08T02:19:30.221Z,18.83
2022-12-08T02:21:53.191Z,18.84
2022-12-08T02:24:22.314Z,18.81
2022-12-08T02:26:51.368Z,18.83
2022-12-08T02:29:17.662Z,18.83
2022-12-08T02:31:46.746Z,18.84
2022-12-08T02:34:13.028Z,18.88
2022-12-08T02:36:42.135Z,18.86
2022-12-08T02:39:08.424Z,18.83
2022-12-08T02:41:34.708Z,18.86
2022-12-08T02:44:03.829Z,18.82
2022-12-08T02:46:30.184Z,18.87
2022-12-08T02:48:59.326Z,18.82
2022-12-08T02:51:25.602Z,18.83
2022-12-08T02:53:54.692Z,18.83
2022-12-08T02:56:23.791Z,18.82
2022-12-08T02:58:52.934Z,18.79
2022-12-08T03:01:19.276Z,18.82
2022-12-08T03:03:48.469Z,18.81
2022-12-08T03:06:17.597Z,18.84
2022-12-08T03:08:43.872Z,18.86
2022-12-08T03:11:10.172Z,18.86
2022-12-08T03:13:39.268Z,18.81
2022-12-08T03:16:05.611Z,18.84
2022-12-08T03:18:34.737Z,18.87
2022-12-08T03:21:03.851Z,18.83
2022-12-08T03:23:32.957Z,18.83
2022-12-08T03:26:02.077Z,18.84
2022-12-08T03:28:31.181Z,18.81
2022-12-08T03:30:57.835Z,18.83
2022-12-08T03:33:24.241Z,18.81
2022-12-08T03:35:53.357Z,18.81
2022-12-08T03:38:22.449Z,18.86
2022-12-08T03:40:51.546Z,18.84
2022-12-08T03:43:17.858Z,18.87
2022-12-08T03:45:44.179Z,18.86
2022-12-08T03:48:10.486Z,18.86
2022-12-08T03:50:36.797Z,18.90
2022-12-08T03:53:05.912Z,18.84
2022-12-08T03:55:32.257Z,18.85
2022-12-08T03:58:01.354Z,18.81
2022-12-08T04:00:27.694Z,18.80
2022-12-08T04:02:56.858Z,18.84
2022-12-08T04:05:25.978Z,18.78
2022-12-08T04:07:52.313Z,18.79
2022-12-08T04:10:18.627Z,18.79
2022-12-08T04:12:44.954Z,18.81
2022-12-08T04:15:11.253Z,18.81
2022-12-08T04:17:37.534Z,18.75
2022-12-08T04:20:04.211Z,18.83
2022-12-08T04:22:30.737Z,18.80
2022-12-08T04:25:00.127Z,18.81
2022-12-08T04:27:26.411Z,18.84
2022-12-08T04:29:55.512Z,18.81
2022-12-08T04:32:24.648Z,18.87
2022-12-08T04:34:53.746Z,18.83
2022-12-08T04:37:20.057Z,18.82
2022-12-08T04:39:49.180Z,18.84
2022-12-08T04:42:15.471Z,18.81
2022-12-08T04:44:44.629Z,18.82
2022-12-08T04:47:10.992Z,18.81
2022-12-08T04:49:40.127Z,18.81
2022-12-08T04:52:06.488Z,18.82
2022-12-08T04:54:35.583Z,18.83
2022-12-08T04:57:04.681Z,18.80
2022-12-08T04:59:30.993Z,18.78
2022-12-08T05:02:00.204Z,18.82
2022-12-08T05:04:29.410Z,18.82
2022-12-08T05:06:58.494Z,18.81
2022-12-08T05:09:24.791Z,18.78
2022-12-08T05:11:51.114Z,18.80
2022-12-08T05:14:17.428Z,18.82
2022-12-08T05:16:43.792Z,18.78
2022-12-08T05:19:10.329Z,18.81
2022-12-08T05:21:36.698Z,18.80
2022-12-08T05:24:02.989Z,18.83
2022-12-08T05:26:29.279Z,18.77
2022-12-08T05:28:58.394Z,18.79
2022-12-08T05:31:24.772Z,18.79
2022-12-08T05:33:51.130Z,18.80
2022-12-08T05:36:17.443Z,18.76
2022-12-08T05:38:43.739Z,18.80
2022-12-08T05:41:10.033Z,18.79
2022-12-08T05:43:39.184Z,18.79
2022-12-08T05:46:05.589Z,18.82
2022-12-08T05:48:31.962Z,18.82
2022-12-08T05:50:58.338Z,18.83
2022-12-08T05:53:24.636Z,18.81
2022-12-08T05:55:50.962Z,18.81
2022-12-08T05:58:17.368Z,18.80
2022-12-08T06:00:43.676Z,18.78
2022-12-08T06:03:09.995Z,18.84
2022-12-08T06:05:36.365Z,18.80
2022-12-08T06:08:02.736Z,18.86
2022-12-08T06:10:29.188Z,18.82
2022-12-08T06:12:55.510Z,18.86
2022-12-08T06:15:21.852Z,18.88
2022-12-08T06:17:51.018Z,18.89
2022-12-08T06:20:17.323Z,18.92
2022-12-08T06:22:43.657Z,18.89
2022-12-08T06:25:10.406Z,18.91
2022-12-08T06:27:36.798Z,18.86
2022-12-08T06:30:06.239Z,18.91
2022-12-08T06:32:32.840Z,18.91
2022-12-08T06:34:59.189Z,18.92
2022-12-08T06:37:25.513Z,18.91
2022-12-08T06:39:51.822Z,18.90
2022-12-08T06:42:18.159Z,18.91
2022-12-08T06:44:44.491Z,18.87
2022-12-08T06:47:10.887Z,18.91
2022-12-08T06:49:37.202Z,18.89
2022-12-08T06:52:03.537Z,18.96
2022-12-08T06:54:30.954Z,18.91
2022-12-08T06:56:58.359Z,18.95
2022-12-08T06:59:24.876Z,18.93
2022-12-08T07:01:52.242Z,18.97
2022-12-08T07:04:19.633Z,18.96
2022-12-08T07:06:46.171Z,18.96
2022-12-08T07:09:12.604Z,18.98
2022-12-08T07:11:39.367Z,18.98
2022-12-08T07:14:06.929Z,19.02
2022-12-08T07:16:34.735Z,19.00
2022-12-08T07:19:02.187Z,19.01
2022-12-08T07:21:28.947Z,18.98
2022-12-08T07:23:58.036Z,17.49
2022-12-08T07:26:27.615Z,16.70
2022-12-08T07:28:54.910Z,16.38
2022-12-08T07:31:21.565Z,16.02
2022-12-08T07:33:48.927Z,16.03
2022-12-08T07:36:17.226Z,15.79
2022-12-08T07:38:43.676Z,15.74
2022-12-08T07:41:10.146Z,15.75
2022-12-08T07:43:36.617Z,15.76
2022-12-08T07:46:03.220Z,15.62
2022-12-08T07:48:29.747Z,15.43
2022-12-08T07:50:57.050Z,15.32
2022-12-08T07:53:24.293Z,15.38
2022-12-08T07:55:51.596Z,15.30
2022-12-08T07:58:19.024Z,15.16
2022-12-08T08:00:45.568Z,15.24
2022-12-08T08:03:14.026Z,15.16
2022-12-08T08:05:41.340Z,15.22
2022-12-08T08:08:08.618Z,15.32
2022-12-08T08:10:35.091Z,15.29
2022-12-08T08:13:04.361Z,15.27
2022-12-08T08:15:32.787Z,15.31
2022-12-08T08:18:01.258Z,15.27
2022-12-08T08:20:27.755Z,15.47
2022-12-08T08:22:54.241Z,15.44
2022-12-08T08:25:20.707Z,15.44
2022-12-08T08:27:48.092Z,15.40
2022-12-08T08:30:20.272Z,15.45
2022-12-08T08:32:47.325Z,15.44
2022-12-08T08:35:14.705Z,15.49
2022-12-08T08:37:44.323Z,16.39
2022-12-08T08:40:14.927Z,17.22
2022-12-08T08:42:41.437Z,17.59
2022-12-08T08:45:07.918Z,17.80
2022-12-08T08:47:34.397Z,17.94
2022-12-08T08:50:00.930Z,18.04
2022-12-08T08:52:28.236Z,18.18
2022-12-08T08:54:54.652Z,18.17
2022-12-08T08:57:25.517Z,18.27
2022-12-08T08:59:52.579Z,18.29
2022-12-08T09:02:19.152Z,18.33
2022-12-08T09:04:46.641Z,18.40
2022-12-08T09:07:13.903Z,18.41
2022-12-08T09:09:40.328Z,18.47
2022-12-08T09:12:06.869Z,18.48
2022-12-08T09:14:34.125Z,18.52
2022-12-08T09:17:00.593Z,18.60
2022-12-08T09:19:27.081Z,18.60
2022-12-08T09:21:55.394Z,18.61
2022-12-08T09:24:22.758Z,18.61
2022-12-08T09:26:50.165Z,18.63
2022-12-08T09:29:16.656Z,18.72
2022-12-08T09:31:43.186Z,18.65
2022-12-08T09:34:09.842Z,18.70
2022-12-08T09:36:36.299Z,18.70
2022-12-08T09:39:02.751Z,18.72
2022-12-08T09:41:34.012Z,18.76
2022-12-08T09:44:04.251Z,18.74
2022-12-08T09:46:31.754Z,18.80
2022-12-08T09:48:58.286Z,18.79
2022-12-08T09:51:24.753Z,18.81
2022-12-08T09:53:51.377Z,18.79
2022-12-08T09:56:17.982Z,18.83
2022-12-08T09:58:44.496Z,18.86
2022-12-08T10:01:10.931Z,18.79
2022-12-08T10:03:37.776Z,18.75
2022-12-08T10:06:05.144Z,18.75
2022-12-08T10:08:32.582Z,18.78
2022-12-08T10:10:59.064Z,18.87
2022-12-08T10:13:25.498Z,18.87
2022-12-08T10:15:52.884Z,18.89
2022-12-08T10:18:20.192Z,18.84
2022-12-08T10:20:47.436Z,18.82
2022-12-08T10:23:15.724Z,18.83
2022-12-08T10:25:42.140Z,18.78
2022-12-08T10:28:08.592Z,18.78
2022-12-08T10:30:35.010Z,18.78
2022-12-08T10:33:01.511Z,18.76
2022-12-08T10:35:28.754Z,18.77
2022-12-08T10:37:55.157Z,18.73
2022-12-08T10:40:21.561Z,18.70
2022-12-08T10:42:47.953Z,18.70
2022-12-08T10:45:14.388Z,18.69
2022-12-08T10:47:44.791Z,18.68
2022-12-08T10:50:11.690Z,18.68
2022-12-08T10:52:38.030Z,18.67
2022-12-08T10:55:04.413Z,18.69
2022-12-08T10:57:30.810Z,18.67
2022-12-08T10:59:59.024Z,18.69
2022-12-08T11:02:25.575Z,18.69
2022-12-08T11:04:52.163Z,18.68
2022-12-08T11:07:19.403Z,18.68
2022-12-08T11:09:45.818Z,18.65
2022-12-08T11:12:12.302Z,18.61
2022-12-08T11:14:40.560Z,18.59
2022-12-08T11:17:07.068Z,18.59
2022-12-08T11:19:33.522Z,18.59
2022-12-08T11:22:00.003Z,18.57
2022-12-08T11:24:26.435Z,18.58
2022-12-08T11:26:52.898Z,18.58
2022-12-08T11:29:21.227Z,18.58
2022-12-08T11:31:51.194Z,18.60
2022-12-08T11:34:17.644Z,18.59
2022-12-08T11:36:45.944Z,18.60
2022-12-08T11:39:14.274Z,18.58
2022-12-08T11:41:40.769Z,18.58
2022-12-08T11:44:08.061Z,18.58
2022-12-08T11:46:34.562Z,18.58
2022-12-08T11:49:06.423Z,18.57
2022-12-08T11:51:34.323Z,18.58
2022-12-08T11:54:00.801Z,18.57
2022-12-08T11:56:27.241Z,18.56
2022-12-08T11:58:53.723Z,18.56
2022-12-08T12:01:20.200Z,18.57
2022-12-08T12:03:47.503Z,18.57
2022-12-08T12:06:37.756Z,18.58
2022-12-08T12:09:01.196Z,18.56
2022-12-08T12:11:28.484Z,18.56
2022-12-08T12:13:54.942Z,18.57
2022-12-08T12:16:22.352Z,18.57
2022-12-08T12:18:48.770Z,18.55
2022-12-08T12:21:15.332Z,18.55
2022-12-08T12:23:42.582Z,18.56
2022-12-08T12:26:09.832Z,18.57
2022-12-08T12:28:37.093Z,18.57
2022-12-08T12:31:04.393Z,18.58
2022-12-08T12:33:31.693Z,18.57
2022-12-08T12:35:58.095Z,18.58
2022-12-08T12:38:25.417Z,18.58
2022-12-08T12:40:52.624Z,18.58
2022-12-08T12:43:19.100Z,18.58
2022-12-08T12:45:46.337Z,18.58
2022-12-08T12:48:12.821Z,18.59
2022-12-08T12:50:40.086Z,18.58
2022-12-08T12:53:12.355Z,18.58
2022-12-08T12:55:40.308Z,18.57
2022-12-08T12:58:06.802Z,18.57
2022-12-08T13:00:34.073Z,18.57
2022-12-08T13:03:04.060Z,18.56
2022-12-08T13:05:31.432Z,18.56
2022-12-08T13:07:59.813Z,18.56
2022-12-08T13:10:27.079Z,18.55
2022-12-08T13:12:53.496Z,18.54
2022-12-08T13:15:20.750Z,18.55
2022-12-08T13:17:47.259Z,18.55
2022-12-08T13:20:14.517Z,18.56
2022-12-08T13:22:40.934Z,18.56
2022-12-08T13:25:07.403Z,18.57
2022-12-08T13:27:33.808Z,18.56
2022-12-08T13:30:01.096Z,18.55
2022-12-08T13:32:39.013Z,18.55
2022-12-08T13:35:16.203Z,18.54
2022-12-08T13:37:53.866Z,18.55
2022-12-08T13:40:21.486Z,18.55
2022-12-08T13:42:49.071Z,18.55
2022-12-08T13:45:25.559Z,18.54
2022-12-08T13:48:21.500Z,18.54
2022-12-08T13:52:37.068Z,18.53
2022-12-08T13:59:03.094Z,18.60
2022-12-08T14:01:29.578Z,18.59
2022-12-08T14:06:44.305Z,18.56
2022-12-08T14:09:11.743Z,18.56
2022-12-08T14:11:39.223Z,18.55
2022-12-08T14:14:06.579Z,18.56
2022-12-08T14:16:33.046Z,18.57
2022-12-08T14:18:59.575Z,18.56
2022-12-08T14:21:27.122Z,18.53
2022-12-08T14:23:57.340Z,18.51
2022-12-08T14:26:25.632Z,18.52
2022-12-08T14:28:52.997Z,18.56
2022-12-08T14:31:20.320Z,18.57
2022-12-08T14:33:49.365Z,18.56
2022-12-08T14:36:20.605Z,18.55
2022-12-08T14:38:47.880Z,18.55
2022-12-08T14:41:14.323Z,18.55
2022-12-08T14:43:40.807Z,18.65
2022-12-08T14:46:08.292Z,18.62
2022-12-08T14:48:34.846Z,18.61
2022-12-08T14:51:02.262Z,18.58
2022-12-08T14:53:28.788Z,18.58
2022-12-08T14:55:55.287Z,18.61
2022-12-08T14:58:21.795Z,18.61
2022-12-08T15:00:48.271Z,18.62
2022-12-08T15:03:15.664Z,18.64
2022-12-08T15:05:43.056Z,18.62
2022-12-08T15:08:09.559Z,18.62
2022-12-08T15:10:36.074Z,18.61
2022-12-08T15:13:03.493Z,18.62
2022-12-08T15:15:30.875Z,18.63
2022-12-08T15:17:57.332Z,18.63
2022-12-08T15:20:23.756Z,18.63
2022-12-08T15:22:51.193Z,18.67
2022-12-08T15:25:17.728Z,18.66
2022-12-08T15:27:50.578Z,18.65
2022-12-08T15:30:18.299Z,18.65
2022-12-08T15:32:45.684Z,18.65
2022-12-08T15:35:13.058Z,18.63
2022-12-08T15:37:40.376Z,18.63
2022-12-08T15:40:07.120Z,18.65
2022-12-08T15:42:34.716Z,18.65
2022-12-08T15:45:02.112Z,18.64
2022-12-08T15:47:28.555Z,18.65
2022-12-08T15:49:54.998Z,18.66
2022-12-08T15:52:22.440Z,18.66
2022-12-08T15:54:49.803Z,18.64
2022-12-08T15:57:21.568Z,18.64
2022-12-08T15:59:56.388Z,18.66
2022-12-08T16:02:25.053Z,18.66
2022-12-08T16:07:39.140Z,18.70
2022-12-08T16:10:07.250Z,18.66
2022-12-08T16:13:26.907Z,18.66
2022-12-08T16:18:09.688Z,18.67
2022-12-08T16:21:06.200Z,18.66
2022-12-08T16:23:41.713Z,18.68
2022-12-08T16:26:24.018Z,18.69
2022-12-08T16:28:56.288Z,18.69
2022-12-08T16:31:23.374Z,18.69
2022-12-08T16:33:51.910Z,18.71
2022-12-08T16:36:19.156Z,18.69
2022-12-08T16:38:45.631Z,18.71
2022-12-08T16:41:12.873Z,18.72
2022-12-08T16:43:39.313Z,18.75
2022-12-08T16:46:06.590Z,18.75
2022-12-08T16:48:33.926Z,18.73
2022-12-08T16:51:01.241Z,18.72
2022-12-08T16:53:28.560Z,18.71
2022-12-08T16:55:54.967Z,18.73
2022-12-08T16:58:23.379Z,18.78
2022-12-08T17:00:50.913Z,18.78
2022-12-08T17:03:17.352Z,18.80
2022-12-08T17:05:46.537Z,18.76
2022-12-08T17:08:14.177Z,18.75
2022-12-08T17:10:40.753Z,18.72
2022-12-08T17:13:07.195Z,18.75
2022-12-08T17:15:33.596Z,18.73
2022-12-08T17:18:00.158Z,18.75
2022-12-08T17:20:27.410Z,18.79
2022-12-08T17:22:57.397Z,18.98
2022-12-08T17:25:25.697Z,19.02
2022-12-08T17:27:52.158Z,19.04
2022-12-08T17:30:18.702Z,19.06
2022-12-08T17:32:48.669Z,19.05
2022-12-08T17:35:17.117Z,19.03
2022-12-08T17:37:43.564Z,19.01
2022-12-08T17:40:11.871Z,18.96
2022-12-08T17:42:38.378Z,18.93
2022-12-08T17:45:07.362Z,18.91
2022-12-08T17:47:35.898Z,18.93
2022-12-08T17:50:02.602Z,18.91
2022-12-08T17:52:29.247Z,18.91
2022-12-08T17:54:55.749Z,18.90
2022-12-08T17:57:22.190Z,18.87
2022-12-08T17:59:50.480Z,18.89
2022-12-08T18:02:19.728Z,18.89
2022-12-08T18:04:46.206Z,18.87
2022-12-08T18:07:12.654Z,18.89
2022-12-08T18:09:40.978Z,18.91
2022-12-08T18:12:07.425Z,18.86
2022-12-08T18:14:33.891Z,18.88
2022-12-08T18:17:02.299Z,18.86
2022-12-08T18:19:30.768Z,18.84
2022-12-08T18:21:59.056Z,18.87
2022-12-08T18:24:27.417Z,18.82
2022-12-08T18:26:53.813Z,18.86
2022-12-08T18:29:20.286Z,18.89
2022-12-08T18:31:47.624Z,18.91
2022-12-08T18:34:14.060Z,18.97
2022-12-08T18:36:40.586Z,18.94
2022-12-08T18:39:10.785Z,19.01
2022-12-08T18:41:39.474Z,18.95
2022-12-08T18:44:09.456Z,18.97
2022-12-08T18:46:35.910Z,19.02
2022-12-08T18:49:03.286Z,18.98
2022-12-08T18:51:29.759Z,19.03
2022-12-08T18:53:57.104Z,19.00
2022-12-08T18:56:23.568Z,19.03
2022-12-08T18:58:51.272Z,19.03
2022-12-08T19:01:17.738Z,19.03
2022-12-08T19:04:12.161Z,19.05
2022-12-08T19:06:35.345Z,19.02
2022-12-08T19:09:02.719Z,19.00
2022-12-08T19:11:31.003Z,19.04
2022-12-08T19:13:57.518Z,19.02
2022-12-08T19:16:24.060Z,19.03
2022-12-08T19:18:50.583Z,19.03
2022-12-08T19:21:18.894Z,19.00
2022-12-08T19:23:45.326Z,19.07
2022-12-08T19:26:13.622Z,19.11
2022-12-08T19:28:40.847Z,19.13
2022-12-08T19:31:08.260Z,19.16
2022-12-08T19:33:37.475Z,19.15
2022-12-08T19:36:03.922Z,19.18
2022-12-08T19:38:30.331Z,18.95
2022-12-08T19:40:57.538Z,19.04
2022-12-08T19:43:23.981Z,18.90
2022-12-08T19:45:50.439Z,18.92
2022-12-08T19:48:16.945Z,18.86
2022-12-08T19:50:43.314Z,18.83
2022-12-08T19:53:09.773Z,18.86
2022-12-08T19:55:36.122Z,18.82
2022-12-08T19:58:02.650Z,18.84
2022-12-08T20:00:29.245Z,18.83
2022-12-08T20:02:55.696Z,18.83
2022-12-08T20:05:22.105Z,18.83
2022-12-08T20:07:48.542Z,18.80
2022-12-08T20:10:15.912Z,18.77
2022-12-08T20:12:42.300Z,18.75
2022-12-08T20:15:08.732Z,18.75
2022-12-08T20:17:35.150Z,18.83
2022-12-08T20:20:06.577Z,18.81
2022-12-08T20:22:33.686Z,19.16
2022-12-08T20:25:01.162Z,19.26
2022-12-08T20:27:27.731Z,19.32
2022-12-08T20:29:54.202Z,19.25
2022-12-08T20:32:20.672Z,19.22
2022-12-08T20:34:47.064Z,19.32
2022-12-08T20:37:13.436Z,18.94
2022-12-08T20:39:39.794Z,18.86
2022-12-08T20:42:07.037Z,18.96
2022-12-08T20:44:33.526Z,18.83
2022-12-08T21:00:10.443Z,19.21
2022-12-08T21:02:40.488Z,19.24
2022-12-08T21:05:10.797Z,19.23
2022-12-08T21:07:37.413Z,19.14
2022-12-08T21:10:07.107Z,19.10
2022-12-08T21:12:33.955Z,19.13
2022-12-08T21:15:00.372Z,19.13
2022-12-08T21:17:26.912Z,19.07
2022-12-08T21:19:53.691Z,19.10
2022-12-08T21:22:20.183Z,19.10
2022-12-08T21:24:47.547Z,19.26
2022-12-08T21:27:15.867Z,19.19
2022-12-08T21:29:44.258Z,19.28
2022-12-08T21:32:11.663Z,19.41
2022-12-08T21:37:33.792Z,19.42
2022-12-08T21:40:00.740Z,19.45
2022-12-08T21:42:33.903Z,19.44
2022-12-08T21:45:02.805Z,19.37
2022-12-08T21:47:32.142Z,19.31
2022-12-08T21:52:43.013Z,19.23
2022-12-08T21:55:09.503Z,19.21
2022-12-08T21:57:36.814Z,19.16
2022-12-08T22:00:03.478Z,19.16
2022-12-08T22:02:33.232Z,19.12
2022-12-08T22:07:47.104Z,19.09
2022-12-08T22:10:13.748Z,19.03
2022-12-08T22:12:40.323Z,18.98
2022-12-08T22:15:07.787Z,19.00
2022-12-08T22:17:34.604Z,19.05
2022-12-08T22:22:56.753Z,19.05
2022-12-08T22:25:23.353Z,19.06
2022-12-08T22:27:49.759Z,19.01
2022-12-08T22:30:16.307Z,18.97
2022-12-08T22:32:42.860Z,18.96
2022-12-08T22:37:54.427Z,18.97
2022-12-08T22:40:21.191Z,18.96
2022-12-08T22:42:48.478Z,19.00
2022-12-08T22:45:15.170Z,18.98
2022-12-08T22:47:41.573Z,19.05
2022-12-08T22:53:02.104Z,19.09
2022-12-08T22:55:30.543Z,19.08
2022-12-08T22:57:56.969Z,19.07
2022-12-08T23:00:23.439Z,19.08
2022-12-08T23:02:50.815Z,19.09
2022-12-08T23:08:02.330Z,19.00
2022-12-08T23:10:32.249Z,19.04
2022-12-08T23:13:03.541Z,19.00
2022-12-08T23:15:32.431Z,18.99
2022-12-08T23:17:58.892Z,19.00
2022-12-08T23:23:09.531Z,19.03
2022-12-08T23:25:36.071Z,18.97
2022-12-08T23:28:02.455Z,18.95
2022-12-08T23:30:31.636Z,18.94
2022-12-08T23:32:58.932Z,18.97
2022-12-08T23:38:23.106Z,18.94
2022-12-08T23:40:52.310Z,18.95
2022-12-08T23:43:18.829Z,18.90
2022-12-08T23:45:45.406Z,18.95
2022-12-08T23:48:12.763Z,18.93
2022-12-08T23:53:23.324Z,18.94
2022-12-08T23:55:49.756Z,18.93
2022-12-08T23:58:17.048Z,18.95
